Time;durP1;ratioP1;P1;durP2;ratioP2;P2;SDS_P1;SDS_P2;PMS_P1;PMS_P2;Temp;Humidity;BMP_temperature;BMP_pressure;BME280_temperature;BME280_humidity;BME280_pressure;Samples;Min_cycle;Max_cycle;Signal;HPM_P1;HPM_P2
2023/05/31 00:00:14;;;;;;;54.40;32.40;;;;;;;;;;5056250;28;20020;-69
2023/05/31 00:02:40;;;;;;;42.17;22.30;;;;;;;;;;5056089;28;20029;-69
2023/05/31 00:05:07;;;;;;;42.92;27.45;;;;;;;;;;5049528;28;20036;-69
2023/05/31 00:07:34;;;;;;;51.03;31.50;;;;;;;;;;5036653;28;20033;-70
2023/05/31 00:10:01;;;;;;;49.20;32.03;;;;;;;;;;5035952;28;20091;-69
2023/05/31 00:12:28;;;;;;;44.28;26.98;;;;;;;;;;5035946;28;20029;-70
2023/05/31 00:14:54;;;;;;;41.55;30.52;;;;;;;;;;5036103;28;20500;-73
2023/05/31 00:17:21;;;;;;;39.47;29.13;;;;;;;;;;5035822;28;20035;-70
2023/05/31 00:19:48;;;;;;;40.00;29.60;;;;;;;;;;5036072;28;20470;-70
2023/05/31 00:22:16;;;;;;;41.38;30.65;;;;;;;;;;5035866;28;20466;-71
2023/05/31 00:24:45;;;;;;;43.75;29.85;;;;;;;;;;5035706;28;20052;-72
2023/05/31 00:27:12;;;;;;;43.13;31.88;;;;;;;;;;5035858;28;20388;-67
2023/05/31 00:29:38;;;;;;;41.90;29.73;;;;;;;;;;5035566;28;20077;-68
2023/05/31 00:32:05;;;;;;;55.30;32.08;;;;;;;;;;5035408;28;20395;-66
2023/05/31 00:34:32;;;;;;;40.85;30.13;;;;;;;;;;5035895;28;20022;-69
2023/05/31 00:36:59;;;;;;;40.40;29.25;;;;;;;;;;5035687;28;20036;-68
2023/05/31 00:39:26;;;;;;;43.13;30.00;;;;;;;;;;5035595;28;20087;-67
2023/05/31 00:41:52;;;;;;;44.35;31.50;;;;;;;;;;5036286;28;20124;-69
2023/05/31 00:44:19;;;;;;;39.90;28.85;;;;;;;;;;5036258;28;20028;-69
2023/05/31 00:46:46;;;;;;;46.80;28.00;;;;;;;;;;5035562;28;20029;-70
2023/05/31 00:49:13;;;;;;;37.38;27.80;;;;;;;;;;5035157;28;20053;-69
2023/05/31 00:51:40;;;;;;;70.28;47.10;;;;;;;;;;5035036;28;20024;-68
2023/05/31 00:54:07;;;;;;;133.52;96.15;;;;;;;;;;5035203;28;20032;-68
2023/05/31 00:56:34;;;;;;;43.92;31.20;;;;;;;;;;5034902;28;20049;-69
2023/05/31 00:59:01;;;;;;;40.88;32.05;;;;;;;;;;5034210;28;20051;-68
2023/05/31 01:01:32;;;;;;;48.95;34.03;;;;;;;;;;5034905;28;20083;-69
2023/05/31 01:04:01;;;;;;;49.97;33.80;;;;;;;;;;5034902;28;20025;-68
2023/05/31 01:06:32;;;;;;;61.13;49.42;;;;;;;;;;5034735;28;20112;-69
2023/05/31 01:09:00;;;;;;;92.20;66.25;;;;;;;;;;5033846;28;20076;-68
2023/05/31 01:11:35;;;;;;;52.60;35.53;;;;;;;;;;5034947;28;20033;-67
2023/05/31 01:14:02;;;;;;;56.03;36.42;;;;;;;;;;5035073;28;20014;-67
2023/05/31 01:16:38;;;;;;;50.30;34.90;;;;;;;;;;5034808;28;20547;-68
2023/05/31 01:19:07;;;;;;;60.95;40.55;;;;;;;;;;5034822;28;20406;-67
2023/05/31 01:21:44;;;;;;;115.22;75.85;;;;;;;;;;5034535;28;20501;-67
2023/05/31 01:24:31;;;;;;;87.72;52.30;;;;;;;;;;5034776;28;20394;-67
2023/05/31 01:27:00;;;;;;;77.47;45.42;;;;;;;;;;4934697;29;20051;-67
2023/05/31 01:29:27;;;;;;;71.75;49.03;;;;;;;;;;4935061;29;20094;-66
2023/05/31 01:31:56;;;;;;;69.90;48.42;;;;;;;;;;4942840;29;20019;-67
2023/05/31 01:34:23;;;;;;;72.68;46.15;;;;;;;;;;4941861;29;20036;-67
2023/05/31 01:36:49;;;;;;;67.78;43.20;;;;;;;;;;4937578;29;20063;-68
2023/05/31 01:39:16;;;;;;;76.72;46.38;;;;;;;;;;4954373;29;20042;-67
2023/05/31 01:41:44;;;;;;;70.35;44.90;;;;;;;;;;4954200;29;20166;-67
2023/05/31 01:44:12;;;;;;;63.67;39.95;;;;;;;;;;4951524;29;20041;-68
2023/05/31 01:46:39;;;;;;;66.32;42.10;;;;;;;;;;4935475;29;20023;-67
2023/05/31 01:49:06;;;;;;;86.13;42.38;;;;;;;;;;4935657;29;20442;-67
2023/05/31 01:51:33;;;;;;;63.03;40.28;;;;;;;;;;4935628;29;20027;-66
2023/05/31 01:54:01;;;;;;;68.50;43.70;;;;;;;;;;4935614;29;20119;-67
2023/05/31 01:56:28;;;;;;;55.53;38.50;;;;;;;;;;4935233;29;20042;-67
2023/05/31 01:58:55;;;;;;;46.00;31.83;;;;;;;;;;4935340;29;20099;-67
2023/05/31 02:01:23;;;;;;;55.92;43.30;;;;;;;;;;4935500;29;20024;-67
2023/05/31 02:03:51;;;;;;;58.88;33.35;;;;;;;;;;4935288;29;20038;-67
2023/05/31 02:06:18;;;;;;;49.08;30.75;;;;;;;;;;4935439;29;20024;-67
2023/05/31 02:08:45;;;;;;;49.17;30.13;;;;;;;;;;4935358;29;20035;-67
2023/05/31 02:11:12;;;;;;;46.65;31.17;;;;;;;;;;4935121;29;20030;-67
2023/05/31 02:13:39;;;;;;;44.33;29.48;;;;;;;;;;4935249;29;20032;-67
2023/05/31 02:16:06;;;;;;;64.97;39.38;;;;;;;;;;4934963;29;20034;-67
2023/05/31 02:18:32;;;;;;;52.38;31.33;;;;;;;;;;4935027;29;20484;-67
2023/05/31 02:20:59;;;;;;;40.88;26.70;;;;;;;;;;4935125;29;20071;-67
2023/05/31 02:23:26;;;;;;;43.88;25.85;;;;;;;;;;4989591;28;20410;-66
2023/05/31 02:25:55;;;;;;;36.15;26.15;;;;;;;;;;5034162;28;20030;-67
2023/05/31 02:28:22;;;;;;;39.83;26.83;;;;;;;;;;5033484;28;20129;-69
2023/05/31 02:30:58;;;;;;;44.17;28.17;;;;;;;;;;5033592;28;20108;-69
2023/05/31 02:33:25;;;;;;;42.60;28.52;;;;;;;;;;5033850;28;20025;-69
2023/05/31 02:35:52;;;;;;;57.58;34.08;;;;;;;;;;5033480;28;20430;-69
2023/05/31 02:38:20;;;;;;;55.90;34.28;;;;;;;;;;5033046;28;20537;-70
2023/05/31 02:40:47;;;;;;;48.80;33.03;;;;;;;;;;5032861;28;20068;-69
2023/05/31 02:43:13;;;;;;;51.95;33.28;;;;;;;;;;5032666;28;20033;-69
2023/05/31 02:45:40;;;;;;;45.30;32.38;;;;;;;;;;5031183;28;20052;-71
2023/05/31 02:48:07;;;;;;;47.08;35.10;;;;;;;;;;5031269;28;20025;-70
2023/05/31 02:50:33;;;;;;;60.25;40.83;;;;;;;;;;5031189;28;20098;-70
2023/05/31 02:53:03;;;;;;;58.08;36.67;;;;;;;;;;5032181;28;20022;-70
2023/05/31 02:55:31;;;;;;;53.00;35.65;;;;;;;;;;5032234;28;20695;-69
2023/05/31 02:57:57;;;;;;;52.30;37.47;;;;;;;;;;5032123;28;20025;-70
2023/05/31 03:00:25;;;;;;;52.50;35.92;;;;;;;;;;5032881;28;20044;-70
2023/05/31 03:02:52;;;;;;;55.03;37.67;;;;;;;;;;5033032;28;20034;-69
2023/05/31 03:05:20;;;;;;;56.20;36.22;;;;;;;;;;5032852;28;20053;-68
2023/05/31 03:07:47;;;;;;;55.55;36.40;;;;;;;;;;5032788;28;20029;-68
2023/05/31 03:10:14;;;;;;;52.10;37.97;;;;;;;;;;5033085;28;20025;-68
2023/05/31 03:12:41;;;;;;;50.15;36.42;;;;;;;;;;5033022;28;20024;-67
2023/05/31 03:15:08;;;;;;;52.85;35.80;;;;;;;;;;5033125;28;20022;-68
2023/05/31 03:17:37;;;;;;;54.47;35.80;;;;;;;;;;5032806;28;20064;-68
2023/05/31 03:20:08;;;;;;;42.42;31.98;;;;;;;;;;5032812;28;20033;-68
2023/05/31 03:22:35;;;;;;;43.70;31.63;;;;;;;;;;5032665;28;20036;-67
2023/05/31 03:25:03;;;;;;;49.00;32.90;;;;;;;;;;5032824;28;20029;-67
2023/05/31 03:27:30;;;;;;;44.92;32.10;;;;;;;;;;5032630;28;20061;-67
2023/05/31 03:29:56;;;;;;;43.67;31.92;;;;;;;;;;5032485;28;20467;-68
2023/05/31 03:32:23;;;;;;;45.28;32.63;;;;;;;;;;5032836;28;20030;-67
2023/05/31 03:34:50;;;;;;;50.75;39.03;;;;;;;;;;5032917;28;20018;-66
2023/05/31 03:37:16;;;;;;;58.28;40.55;;;;;;;;;;5032527;28;20021;-66
2023/05/31 03:39:43;;;;;;;49.33;34.75;;;;;;;;;;5032563;28;20033;-66
2023/05/31 03:42:10;;;;;;;49.00;31.35;;;;;;;;;;5032767;28;20028;-66
2023/05/31 03:44:36;;;;;;;46.70;31.08;;;;;;;;;;5032522;28;20021;-68
2023/05/31 03:47:03;;;;;;;42.20;31.17;;;;;;;;;;5032598;28;20451;-67
2023/05/31 03:49:30;;;;;;;43.10;29.70;;;;;;;;;;5032660;28;20049;-69
2023/05/31 03:51:57;;;;;;;52.22;39.60;;;;;;;;;;5035590;28;20444;-68
2023/05/31 03:54:23;;;;;;;51.83;38.92;;;;;;;;;;5036226;28;20032;-69
2023/05/31 03:56:50;;;;;;;61.78;47.75;;;;;;;;;;5036310;28;20026;-68
2023/05/31 03:59:17;;;;;;;52.00;35.05;;;;;;;;;;5036120;28;20394;-70
2023/05/31 04:01:43;;;;;;;41.33;28.92;;;;;;;;;;5036098;28;20101;-71
2023/05/31 04:04:10;;;;;;;38.50;27.15;;;;;;;;;;5036279;28;20488;-67
2023/05/31 04:06:37;;;;;;;74.43;52.13;;;;;;;;;;5036040;28;20033;-66
2023/05/31 04:09:04;;;;;;;44.00;28.45;;;;;;;;;;5035772;28;20083;-66
2023/05/31 04:11:31;;;;;;;56.10;39.97;;;;;;;;;;5035953;28;20096;-66
2023/05/31 04:13:58;;;;;;;40.72;28.20;;;;;;;;;;5036061;28;20105;-67
2023/05/31 04:16:25;;;;;;;36.03;24.35;;;;;;;;;;5036014;28;20470;-67
2023/05/31 04:18:52;;;;;;;44.67;32.42;;;;;;;;;;5035800;28;20398;-67
2023/05/31 04:21:19;;;;;;;50.72;36.28;;;;;;;;;;5035917;28;20025;-67
2023/05/31 04:23:46;;;;;;;56.63;42.22;;;;;;;;;;5035544;28;20026;-67
2023/05/31 04:26:16;;;;;;;39.13;29.92;;;;;;;;;;5035805;28;20022;-67
2023/05/31 04:28:43;;;;;;;39.25;28.70;;;;;;;;;;5035477;28;20053;-67
2023/05/31 04:31:11;;;;;;;42.20;30.67;;;;;;;;;;5035401;28;20025;-67
2023/05/31 04:33:38;;;;;;;39.85;28.80;;;;;;;;;;5035571;28;20021;-68
2023/05/31 04:36:08;;;;;;;30.20;24.65;;;;;;;;;;5048373;28;20021;-68
2023/05/31 04:38:35;;;;;;;37.10;24.65;;;;;;;;;;5055218;28;20108;-68
2023/05/31 04:41:03;;;;;;;32.83;24.75;;;;;;;;;;5055529;28;20470;-68
2023/05/31 04:43:30;;;;;;;35.95;24.58;;;;;;;;;;5055554;28;20032;-68
2023/05/31 04:46:00;;;;;;;35.92;25.88;;;;;;;;;;5055106;28;20017;-68
2023/05/31 04:48:27;;;;;;;37.53;25.05;;;;;;;;;;5055194;28;20033;-67
2023/05/31 04:50:55;;;;;;;34.13;25.30;;;;;;;;;;5055148;28;20049;-67
2023/05/31 04:53:21;;;;;;;29.35;24.05;;;;;;;;;;5055047;28;20029;-67
2023/05/31 04:55:48;;;;;;;31.48;24.48;;;;;;;;;;5055154;28;20059;-66
2023/05/31 04:58:15;;;;;;;32.30;24.02;;;;;;;;;;5054995;28;20025;-66
2023/05/31 05:00:42;;;;;;;27.95;21.02;;;;;;;;;;5055151;28;20428;-67
2023/05/31 05:03:10;;;;;;;29.92;22.73;;;;;;;;;;5054159;28;20033;-67
2023/05/31 05:05:37;;;;;;;30.10;21.92;;;;;;;;;;5054779;28;20056;-67
2023/05/31 05:08:03;;;;;;;33.00;21.90;;;;;;;;;;5054681;28;20159;-67
2023/05/31 05:10:30;;;;;;;28.75;21.42;;;;;;;;;;5054784;28;20017;-67
2023/05/31 05:12:57;;;;;;;29.25;20.40;;;;;;;;;;5054872;28;20017;-67
2023/05/31 05:15:24;;;;;;;29.10;19.90;;;;;;;;;;5054488;28;20484;-67
2023/05/31 05:17:51;;;;;;;29.35;20.05;;;;;;;;;;5054643;28;20056;-67
2023/05/31 05:20:19;;;;;;;29.75;20.45;;;;;;;;;;5054525;28;20029;-67
2023/05/31 05:22:51;;;;;;;33.17;22.02;;;;;;;;;;5054390;28;20029;-67
2023/05/31 05:25:18;;;;;;;30.55;22.10;;;;;;;;;;5054366;28;20532;-66
2023/05/31 05:27:44;;;;;;;31.70;21.83;;;;;;;;;;5054416;28;20045;-68
2023/05/31 05:30:12;;;;;;;30.70;21.20;;;;;;;;;;5054332;28;20112;-67
2023/05/31 05:32:38;;;;;;;27.95;19.77;;;;;;;;;;5054050;28;20473;-68
2023/05/31 05:35:06;;;;;;;25.20;19.85;;;;;;;;;;5053161;28;20033;-68
2023/05/31 05:37:32;;;;;;;26.80;19.65;;;;;;;;;;5052907;28;20037;-68
2023/05/31 05:40:00;;;;;;;29.10;20.15;;;;;;;;;;5054349;28;20505;-68
2023/05/31 05:42:28;;;;;;;32.17;20.52;;;;;;;;;;5053677;28;20036;-64
2023/05/31 05:44:54;;;;;;;86.47;61.60;;;;;;;;;;5054059;28;20025;-66
2023/05/31 05:47:21;;;;;;;35.65;25.33;;;;;;;;;;5047207;28;20025;-67
2023/05/31 05:49:48;;;;;;;33.70;26.50;;;;;;;;;;5048920;28;20021;-66
2023/05/31 05:52:15;;;;;;;30.35;21.00;;;;;;;;;;5048412;28;20081;-65
2023/05/31 05:54:41;;;;;;;117.38;89.13;;;;;;;;;;5048894;28;20041;-65
2023/05/31 05:57:08;;;;;;;32.92;22.85;;;;;;;;;;5048792;28;20028;-66
2023/05/31 05:59:37;;;;;;;26.90;21.30;;;;;;;;;;5041638;28;20028;-65
2023/05/31 06:02:04;;;;;;;27.60;21.23;;;;;;;;;;5043947;28;20086;-65
2023/05/31 06:04:30;;;;;;;29.33;23.45;;;;;;;;;;5043598;28;20014;-67
2023/05/31 06:06:57;;;;;;;51.58;38.47;;;;;;;;;;5041527;28;20037;-67
2023/05/31 06:09:24;;;;;;;35.70;27.85;;;;;;;;;;5042775;28;20442;-63
2023/05/31 06:11:51;;;;;;;29.55;23.33;;;;;;;;;;5042916;28;20009;-68
2023/05/31 06:14:18;;;;;;;29.35;21.33;;;;;;;;;;5043811;28;20079;-68
2023/05/31 06:16:45;;;;;;;33.58;22.92;;;;;;;;;;5053447;28;20551;-66
2023/05/31 06:19:11;;;;;;;29.80;21.40;;;;;;;;;;5053547;28;20032;-67
2023/05/31 06:21:38;;;;;;;29.02;21.70;;;;;;;;;;5053217;28;20028;-68
2023/05/31 06:24:05;;;;;;;31.55;22.20;;;;;;;;;;5053561;28;20025;-68
2023/05/31 06:26:35;;;;;;;25.13;20.70;;;;;;;;;;5052925;28;20024;-68
2023/05/31 06:29:02;;;;;;;27.45;20.63;;;;;;;;;;5051830;28;20076;-68
2023/05/31 06:31:30;;;;;;;25.45;20.67;;;;;;;;;;5052860;28;20025;-68
2023/05/31 06:33:57;;;;;;;29.63;21.80;;;;;;;;;;5052817;28;20040;-67
2023/05/31 06:36:23;;;;;;;42.47;33.53;;;;;;;;;;5039276;28;20489;-68
2023/05/31 06:38:50;;;;;;;44.40;29.08;;;;;;;;;;5030530;28;20462;-67
2023/05/31 06:41:17;;;;;;;37.72;27.85;;;;;;;;;;5050289;28;20043;-67
2023/05/31 06:43:44;;;;;;;33.22;23.25;;;;;;;;;;5050418;28;20056;-66
2023/05/31 06:46:12;;;;;;;36.60;28.05;;;;;;;;;;5050706;28;20033;-66
2023/05/31 06:48:39;;;;;;;35.55;27.40;;;;;;;;;;5050370;28;20035;-67
2023/05/31 06:51:05;;;;;;;31.45;23.30;;;;;;;;;;5038631;28;20033;-67
2023/05/31 06:53:32;;;;;;;35.58;25.02;;;;;;;;;;5040989;28;20394;-66
2023/05/31 06:55:59;;;;;;;28.63;22.65;;;;;;;;;;5043429;28;20531;-68
2023/05/31 06:58:32;;;;;;;27.98;23.23;;;;;;;;;;5042891;28;20060;-66
2023/05/31 07:00:59;;;;;;;31.23;22.23;;;;;;;;;;5039295;28;20075;-67
2023/05/31 07:03:26;;;;;;;28.95;21.98;;;;;;;;;;5041815;28;20044;-70
2023/05/31 07:05:53;;;;;;;30.33;24.05;;;;;;;;;;5045218;28;20379;-69
2023/05/31 07:08:19;;;;;;;28.45;22.40;;;;;;;;;;5043043;28;20147;-66
2023/05/31 07:10:46;;;;;;;31.77;23.92;;;;;;;;;;5045010;28;20460;-68
2023/05/31 07:13:13;;;;;;;27.98;22.17;;;;;;;;;;5047152;28;20075;-67
2023/05/31 07:15:39;;;;;;;36.08;24.13;;;;;;;;;;5035600;28;20112;-67
2023/05/31 07:18:06;;;;;;;24.90;21.67;;;;;;;;;;5050119;28;20039;-67
2023/05/31 07:20:33;;;;;;;27.20;20.85;;;;;;;;;;5036542;28;20041;-68
2023/05/31 07:23:00;;;;;;;33.50;24.17;;;;;;;;;;5041848;28;20021;-69
2023/05/31 07:25:26;;;;;;;29.10;21.63;;;;;;;;;;5032691;28;20091;-69
2023/05/31 07:27:53;;;;;;;33.25;23.48;;;;;;;;;;5035417;28;20049;-69
2023/05/31 07:30:23;;;;;;;28.60;23.98;;;;;;;;;;5043067;28;20017;-69
2023/05/31 07:32:50;;;;;;;30.85;23.73;;;;;;;;;;5043506;28;20022;-67
2023/05/31 07:35:16;;;;;;;28.63;21.20;;;;;;;;;;5047472;28;20037;-65
2023/05/31 07:37:43;;;;;;;29.27;22.77;;;;;;;;;;5042879;28;20367;-66
2023/05/31 07:40:10;;;;;;;28.83;23.35;;;;;;;;;;5041784;28;20116;-67
2023/05/31 07:42:37;;;;;;;34.30;24.15;;;;;;;;;;5044307;28;20029;-69
2023/05/31 07:45:04;;;;;;;29.08;22.67;;;;;;;;;;5045675;28;20077;-67
2023/05/31 07:47:30;;;;;;;30.48;23.77;;;;;;;;;;5044444;28;20108;-68
2023/05/31 07:49:57;;;;;;;38.83;29.58;;;;;;;;;;5044228;28;20021;-70
2023/05/31 07:52:24;;;;;;;29.63;23.40;;;;;;;;;;5045757;28;20025;-69
2023/05/31 07:54:51;;;;;;;154.18;115.25;;;;;;;;;;5041174;28;20021;-68
2023/05/31 07:57:17;;;;;;;67.05;47.88;;;;;;;;;;5045254;28;20064;-69
2023/05/31 07:59:44;;;;;;;32.92;23.27;;;;;;;;;;5043603;28;20421;-68
2023/05/31 08:02:11;;;;;;;31.75;23.48;;;;;;;;;;5045043;28;20021;-68
2023/05/31 08:04:38;;;;;;;31.33;22.70;;;;;;;;;;5044985;28;20025;-68
2023/05/31 08:07:06;;;;;;;38.55;24.58;;;;;;;;;;5043431;28;20101;-68
2023/05/31 08:09:33;;;;;;;114.75;84.82;;;;;;;;;;5044737;28;20025;-68
2023/05/31 08:11:59;;;;;;;86.72;65.97;;;;;;;;;;5043762;28;20022;-69
2023/05/31 08:14:26;;;;;;;44.22;33.38;;;;;;;;;;5043529;28;20363;-68
2023/05/31 08:16:53;;;;;;;39.15;30.40;;;;;;;;;;5044208;28;20060;-68
2023/05/31 08:19:19;;;;;;;30.65;24.70;;;;;;;;;;5043723;28;20028;-68
2023/05/31 08:21:46;;;;;;;33.90;23.08;;;;;;;;;;5045397;28;20079;-68
2023/05/31 08:24:13;;;;;;;84.72;65.10;;;;;;;;;;5044228;28;20231;-69
2023/05/31 08:26:40;;;;;;;49.50;35.58;;;;;;;;;;5043482;28;20039;-68
2023/05/31 08:29:07;;;;;;;52.58;40.45;;;;;;;;;;5045228;28;20091;-67
2023/05/31 08:31:34;;;;;;;71.57;56.50;;;;;;;;;;5044038;28;20493;-69
2023/05/31 08:34:01;;;;;;;58.80;49.53;;;;;;;;;;5043107;28;20025;-69
2023/05/31 08:36:28;;;;;;;30.55;24.13;;;;;;;;;;5044621;28;20421;-68
2023/05/31 08:38:55;;;;;;;28.02;22.20;;;;;;;;;;5043203;28;20022;-69
2023/05/31 08:41:23;;;;;;;29.73;22.85;;;;;;;;;;5042554;28;20081;-70
2023/05/31 08:43:50;;;;;;;27.20;21.67;;;;;;;;;;5041607;28;20696;-66
2023/05/31 08:46:16;;;;;;;99.25;74.47;;;;;;;;;;5044026;28;20028;-66
2023/05/31 08:48:50;;;;;;;34.25;25.10;;;;;;;;;;5042818;28;20030;-67
2023/05/31 08:51:17;;;;;;;30.27;23.27;;;;;;;;;;5043428;28;20466;-68
2023/05/31 08:53:45;;;;;;;29.92;25.63;;;;;;;;;;5040611;28;20368;-68
2023/05/31 08:56:13;;;;;;;32.00;22.35;;;;;;;;;;5042559;28;20025;-68
2023/05/31 08:58:42;;;;;;;31.38;21.77;;;;;;;;;;5042977;28;20075;-69
2023/05/31 09:01:09;;;;;;;28.45;21.42;;;;;;;;;;5044558;28;20374;-69
2023/05/31 09:03:37;;;;;;;31.92;22.92;;;;;;;;;;5043457;28;20037;-69
2023/05/31 09:06:04;;;;;;;37.22;22.70;;;;;;;;;;5052954;28;20108;-68
2023/05/31 09:08:33;;;;;;;36.58;24.67;;;;;;;;;;5045510;28;20545;-69
2023/05/31 09:11:01;;;;;;;34.67;24.25;;;;;;;;;;5044104;28;20476;-69
2023/05/31 09:13:28;;;;;;;39.60;26.25;;;;;;;;;;5045065;28;20025;-70
2023/05/31 09:15:55;;;;;;;38.63;25.08;;;;;;;;;;5043309;28;20013;-70
2023/05/31 09:18:23;;;;;;;36.80;25.60;;;;;;;;;;5045482;28;20115;-69
2023/05/31 09:20:55;;;;;;;31.65;24.42;;;;;;;;;;5042978;28;20025;-69
2023/05/31 09:23:22;;;;;;;52.38;31.50;;;;;;;;;;5043524;28;20031;-69
2023/05/31 09:25:52;;;;;;;43.55;27.95;;;;;;;;;;5044646;28;20380;-67
2023/05/31 09:28:21;;;;;;;45.95;28.13;;;;;;;;;;5043549;28;20038;-66
2023/05/31 09:31:02;;;;;;;49.03;27.88;;;;;;;;;;5042875;28;20482;-66
2023/05/31 09:33:29;;;;;;;;;;;;;;;;;;5043096;28;20025;-66
2023/05/31 09:35:58;;;;;;;48.53;23.08;;;;;;;;;;5044210;28;19904;-67
2023/05/31 09:38:34;;;;;;;39.53;24.38;;;;;;;;;;5044336;28;20021;-67
2023/05/31 09:41:19;;;;;;;46.67;26.17;;;;;;;;;;5043790;28;20017;-67
2023/05/31 09:43:47;;;;;;;43.30;25.98;;;;;;;;;;5044117;28;20474;-67
2023/05/31 09:46:16;;;;;;;30.63;20.85;;;;;;;;;;5039719;28;20412;-66
2023/05/31 09:48:44;;;;;;;32.90;20.98;;;;;;;;;;5043357;28;20017;-66
2023/05/31 09:51:12;;;;;;;34.97;20.50;;;;;;;;;;5042540;28;20021;-67
2023/05/31 09:53:42;;;;;;;86.05;61.97;;;;;;;;;;5041071;28;20482;-67
2023/05/31 09:56:10;;;;;;;41.75;26.48;;;;;;;;;;5035606;28;20108;-68
2023/05/31 09:58:37;;;;;;;31.02;21.88;;;;;;;;;;5042906;28;20439;-68
2023/05/31 10:01:04;;;;;;;34.55;23.25;;;;;;;;;;5042485;28;20055;-68
2023/05/31 10:03:33;;;;;;;35.67;22.45;;;;;;;;;;5041777;28;20390;-67
2023/05/31 10:06:00;;;;;;;36.00;21.35;;;;;;;;;;5043302;28;20025;-67
2023/05/31 10:08:27;;;;;;;35.17;21.77;;;;;;;;;;5043545;28;20540;-67
2023/05/31 10:10:59;;;;;;;29.80;19.15;;;;;;;;;;5038571;28;20026;-66
2023/05/31 10:13:27;;;;;;;38.67;22.40;;;;;;;;;;5037167;28;20495;-67
2023/05/31 10:15:56;;;;;;;50.28;32.95;;;;;;;;;;5039811;28;20030;-67
2023/05/31 10:18:24;;;;;;;140.88;96.53;;;;;;;;;;5040882;28;20112;-67
2023/05/31 10:20:53;;;;;;;166.82;125.18;;;;;;;;;;5043618;28;20025;-68
2023/05/31 10:23:22;;;;;;;76.82;53.13;;;;;;;;;;5042975;28;20379;-68
2023/05/31 10:25:50;;;;;;;87.53;57.05;;;;;;;;;;5038286;28;20033;-68
2023/05/31 10:28:18;;;;;;;40.72;26.67;;;;;;;;;;5041618;28;20095;-69
2023/05/31 10:30:50;;;;;;;35.50;23.65;;;;;;;;;;5043464;28;20079;-67
2023/05/31 10:33:18;;;;;;;41.13;25.27;;;;;;;;;;5042994;28;20026;-68
2023/05/31 10:35:45;;;;;;;36.88;24.25;;;;;;;;;;5040262;28;20017;-68
2023/05/31 10:38:13;;;;;;;40.88;24.50;;;;;;;;;;5043398;28;20033;-69
2023/05/31 10:40:42;;;;;;;83.15;62.67;;;;;;;;;;5037300;28;20028;-68
2023/05/31 10:43:20;;;;;;;85.10;61.85;;;;;;;;;;5044068;28;20064;-67
2023/05/31 10:45:47;;;;;;;56.58;42.95;;;;;;;;;;5051087;28;20639;-68
2023/05/31 10:48:14;;;;;;;42.30;30.23;;;;;;;;;;5045869;28;20033;-70
2023/05/31 10:50:53;;;;;;;61.47;39.42;;;;;;;;;;5043882;28;20514;-67
2023/05/31 10:53:20;;;;;;;52.72;32.95;;;;;;;;;;5043543;28;20402;-68
2023/05/31 10:55:48;;;;;;;56.95;33.60;;;;;;;;;;5042603;28;20033;-68
2023/05/31 10:58:26;;;;;;;45.38;28.38;;;;;;;;;;5039283;28;20028;-67
2023/05/31 11:00:55;;;;;;;138.60;102.53;;;;;;;;;;5032503;28;21000;-67
2023/05/31 11:03:24;;;;;;;65.80;41.55;;;;;;;;;;5033160;28;20040;-67
2023/05/31 11:06:11;;;;;;;98.00;71.50;;;;;;;;;;5033323;28;20491;-69
2023/05/31 11:08:38;;;;;;;78.15;50.65;;;;;;;;;;5048836;28;20025;-67
2023/05/31 11:11:25;;;;;;;87.88;57.42;;;;;;;;;;5048982;28;20017;-68
2023/05/31 11:13:59;;;;;;;74.25;47.40;;;;;;;;;;5048882;28;20040;-70
2023/05/31 11:16:27;;;;;;;69.10;47.72;;;;;;;;;;5033049;28;20022;-68
2023/05/31 11:19:08;;;;;;;64.65;46.80;;;;;;;;;;5033489;28;20104;-68
2023/05/31 11:21:48;;;;;;;65.55;49.50;;;;;;;;;;5019808;28;20045;-70
2023/05/31 11:24:24;;;;;;;68.82;49.65;;;;;;;;;;5033503;28;20026;-67
2023/05/31 11:26:55;;;;;;;72.00;50.50;;;;;;;;;;5033259;28;20030;-66
2023/05/31 11:29:22;;;;;;;68.40;50.47;;;;;;;;;;5046581;28;20095;-65
2023/05/31 11:31:59;;;;;;;75.70;58.08;;;;;;;;;;5048875;28;20546;-69
2023/05/31 11:34:29;;;;;;;77.43;52.45;;;;;;;;;;5048772;28;20017;-67
2023/05/31 11:36:58;;;;;;;68.90;54.38;;;;;;;;;;5048603;28;20476;-69
2023/05/31 11:39:26;;;;;;;73.10;52.78;;;;;;;;;;5039734;28;20555;-69
2023/05/31 11:41:54;;;;;;;74.00;53.13;;;;;;;;;;5046528;28;20045;-69
2023/05/31 11:44:40;;;;;;;65.70;49.67;;;;;;;;;;5033388;28;20026;-69
2023/05/31 11:47:10;;;;;;;69.90;52.10;;;;;;;;;;5038720;28;20033;-69
2023/05/31 11:49:37;;;;;;;68.95;50.65;;;;;;;;;;5037394;28;20052;-69
2023/05/31 11:52:05;;;;;;;72.20;50.83;;;;;;;;;;5033562;28;20157;-69
2023/05/31 11:54:32;;;;;;;68.93;52.28;;;;;;;;;;5039522;28;20025;-69
2023/05/31 11:57:02;;;;;;;74.45;53.30;;;;;;;;;;5044498;28;20052;-68
2023/05/31 11:59:32;;;;;;;74.22;51.90;;;;;;;;;;5049009;28;20381;-69
2023/05/31 12:02:00;;;;;;;66.55;51.28;;;;;;;;;;5043419;28;20029;-69
2023/05/31 12:04:37;;;;;;;63.50;48.33;;;;;;;;;;5042089;28;20057;-68
2023/05/31 12:07:05;;;;;;;77.55;54.70;;;;;;;;;;5041631;28;20111;-69
2023/05/31 12:09:33;;;;;;;69.95;48.55;;;;;;;;;;5041849;28;20022;-68
2023/05/31 12:12:03;;;;;;;68.35;48.88;;;;;;;;;;5040555;28;20009;-68
2023/05/31 12:14:30;;;;;;;73.55;55.00;;;;;;;;;;5046369;28;20052;-69
2023/05/31 12:16:57;;;;;;;70.68;51.80;;;;;;;;;;5044404;28;20028;-71
2023/05/31 12:19:23;;;;;;;70.47;51.05;;;;;;;;;;5041458;28;20037;-70
2023/05/31 12:21:51;;;;;;;74.30;52.17;;;;;;;;;;5040941;28;20416;-69
2023/05/31 12:24:18;;;;;;;61.13;45.67;;;;;;;;;;5048362;28;20095;-68
2023/05/31 12:26:47;;;;;;;64.03;45.97;;;;;;;;;;5049003;28;20017;-69
2023/05/31 12:29:15;;;;;;;59.45;44.03;;;;;;;;;;5038359;28;20056;-69
2023/05/31 12:31:41;;;;;;;68.15;47.50;;;;;;;;;;5035965;28;20041;-71
2023/05/31 12:34:09;;;;;;;59.78;46.10;;;;;;;;;;5041371;28;20025;-71
2023/05/31 12:36:50;;;;;;;56.03;43.60;;;;;;;;;;5046059;28;20032;-69
2023/05/31 12:39:18;;;;;;;61.90;46.40;;;;;;;;;;5044626;28;20022;-74
2023/05/31 12:41:46;;;;;;;56.55;43.80;;;;;;;;;;5038304;28;20037;-71
2023/05/31 12:44:16;;;;;;;55.75;43.30;;;;;;;;;;5037750;28;20021;-71
2023/05/31 12:46:44;;;;;;;70.18;55.13;;;;;;;;;;5044256;28;20125;-69
2023/05/31 12:49:14;;;;;;;128.13;102.40;;;;;;;;;;5052138;28;20096;-69
2023/05/31 12:51:40;;;;;;;120.80;93.47;;;;;;;;;;5046445;28;20037;-69
2023/05/31 12:54:12;;;;;;;190.95;146.68;;;;;;;;;;5037889;28;20017;-69
2023/05/31 12:56:39;;;;;;;;;;;;;;;;;;5039977;28;20040;-70
2023/05/31 12:59:06;;;;;;;76.55;58.28;;;;;;;;;;5037269;28;19916;-69
2023/05/31 13:01:34;;;;;;;67.97;54.83;;;;;;;;;;5046735;28;20469;-71
2023/05/31 13:04:00;;;;;;;90.70;65.07;;;;;;;;;;5043916;28;20037;-70
2023/05/31 13:06:27;;;;;;;57.90;43.83;;;;;;;;;;5040801;28;20083;-71
2023/05/31 13:08:54;;;;;;;57.50;43.60;;;;;;;;;;5054698;28;20021;-70
2023/05/31 13:11:21;;;;;;;53.72;41.40;;;;;;;;;;5054251;28;20025;-71
2023/05/31 13:13:48;;;;;;;57.67;43.63;;;;;;;;;;5054554;28;20024;-70
2023/05/31 13:16:14;;;;;;;54.20;41.40;;;;;;;;;;5054877;28;20572;-71
2023/05/31 13:18:41;;;;;;;56.55;40.17;;;;;;;;;;5055027;28;20107;-70
2023/05/31 13:21:08;;;;;;;76.95;63.97;;;;;;;;;;5054987;28;20024;-70
2023/05/31 13:23:35;;;;;;;74.18;54.60;;;;;;;;;;5053869;28;20382;-71
2023/05/31 13:26:02;;;;;;;91.38;66.15;;;;;;;;;;5054781;28;20142;-72
2023/05/31 13:28:29;;;;;;;111.00;74.53;;;;;;;;;;5054628;28;20041;-71
2023/05/31 13:30:56;;;;;;;61.85;43.70;;;;;;;;;;5054519;28;20017;-71
2023/05/31 13:33:25;;;;;;;72.05;54.13;;;;;;;;;;5054596;28;20378;-69
2023/05/31 13:35:51;;;;;;;44.92;34.70;;;;;;;;;;5054587;28;20112;-71
2023/05/31 13:38:18;;;;;;;44.20;34.90;;;;;;;;;;5054343;28;20029;-72
2023/05/31 13:40:45;;;;;;;47.63;34.25;;;;;;;;;;5054497;28;20469;-71
2023/05/31 13:43:11;;;;;;;42.40;32.42;;;;;;;;;;5054480;28;20504;-71
2023/05/31 13:45:38;;;;;;;38.72;30.40;;;;;;;;;;5054136;28;20036;-71
2023/05/31 13:48:05;;;;;;;38.38;30.98;;;;;;;;;;5047700;28;20024;-70
2023/05/31 13:50:32;;;;;;;42.00;32.08;;;;;;;;;;5039728;28;20041;-69
2023/05/31 13:52:59;;;;;;;44.97;31.10;;;;;;;;;;5042860;28;20548;-70
2023/05/31 13:55:25;;;;;;;41.10;31.15;;;;;;;;;;5044109;28;20404;-72
2023/05/31 13:57:52;;;;;;;38.03;29.33;;;;;;;;;;5046387;28;20028;-71
2023/05/31 14:00:19;;;;;;;92.40;79.03;;;;;;;;;;5048760;28;20060;-71
2023/05/31 14:02:47;;;;;;;120.90;98.53;;;;;;;;;;5035583;28;20036;-72
2023/05/31 14:05:13;;;;;;;161.65;111.45;;;;;;;;;;5039064;28;20438;-71
2023/05/31 14:07:40;;;;;;;127.28;91.10;;;;;;;;;;5053897;28;20359;-72
2023/05/31 14:10:07;;;;;;;54.85;42.33;;;;;;;;;;5053749;28;20458;-71
2023/05/31 14:12:34;;;;;;;50.70;35.90;;;;;;;;;;5053782;28;20048;-71
2023/05/31 14:15:01;;;;;;;40.38;30.90;;;;;;;;;;5053842;28;20442;-71
2023/05/31 14:17:28;;;;;;;41.70;29.88;;;;;;;;;;5053590;28;20157;-71
2023/05/31 14:19:55;;;;;;;41.45;29.38;;;;;;;;;;5053702;28;20028;-70